sensor_id;sensor_type;location;lat;lon;timestamp;pressure;altitude;pressure_sealevel;temperature;humidity
20455;BME280;10386;54.314;10.022;2024-03-08T00:00:07;103814.19;;;2.08;100.00
20455;BME280;10386;54.314;10.022;2024-03-08T00:02:39;103821.22;;;1.97;100.00
20455;BME280;10386;54.314;10.022;2024-03-08T00:05:07;103821.38;;;2.12;100.00
20455;BME280;10386;54.314;10.022;2024-03-08T00:07:36;103820.38;;;2.03;100.00
20455;BME280;10386;54.314;10.022;2024-03-08T00:10:07;103814.94;;;1.97;100.00
20455;BME280;10386;54.314;10.022;2024-03-08T00:12:39;103817.75;;;2.07;100.00
20455;BME280;10386;54.314;10.022;2024-03-08T00:15:16;103818.44;;;1.88;100.00
20455;BME280;10386;54.314;10.022;2024-03-08T00:17:46;103819.22;;;1.78;100.00
20455;BME280;10386;54.314;10.022;2024-03-08T00:20:14;103815.97;;;2.06;100.00
20455;BME280;10386;54.314;10.022;2024-03-08T00:22:45;103812.25;;;1.92;100.00
20455;BME280;10386;54.314;10.022;2024-03-08T00:25:12;103803.22;;;1.84;100.00
20455;BME280;10386;54.314;10.022;2024-03-08T00:27:39;103808.63;;;1.92;100.00
20455;BME280;10386;54.314;10.022;2024-03-08T00:30:07;103811.38;;;1.98;100.00
20455;BME280;10386;54.314;10.022;2024-03-08T00:32:35;103813.97;;;1.87;100.00
20455;BME280;10386;54.314;10.022;2024-03-08T00:35:03;103804.94;;;1.81;100.00
20455;BME280;10386;54.314;10.022;2024-03-08T00:37:30;103806.91;;;1.97;100.00
20455;BME280;10386;54.314;10.022;2024-03-08T00:39:57;103807.59;;;1.78;100.00
20455;BME280;10386;54.314;10.022;2024-03-08T00:42:24;103808.44;;;1.72;100.00
20455;BME280;10386;54.314;10.022;2024-03-08T00:44:51;103803.97;;;1.71;100.00
20455;BME280;10386;54.314;10.022;2024-03-08T00:47:18;103802.34;;;1.87;100.00
20455;BME280;10386;54.314;10.022;2024-03-08T00:49:45;103805.75;;;1.74;100.00
20455;BME280;10386;54.314;10.022;2024-03-08T00:52:14;103802.31;;;1.84;100.00
20455;BME280;10386;54.314;10.022;2024-03-08T00:54:41;103795.25;;;1.90;100.00
20455;BME280;10386;54.314;10.022;2024-03-08T00:57:11;103789.84;;;1.87;100.00
20455;BME280;10386;54.314;10.022;2024-03-08T00:59:38;103792.47;;;1.83;100.00
20455;BME280;10386;54.314;10.022;2024-03-08T01:02:05;103785.13;;;1.67;100.00
20455;BME280;10386;54.314;10.022;2024-03-08T01:04:32;103781.66;;;1.72;100.00
20455;BME280;10386;54.314;10.022;2024-03-08T01:07:00;103774.53;;;1.74;100.00
20455;BME280;10386;54.314;10.022;2024-03-08T01:09:27;103784.19;;;1.63;100.00
20455;BME280;10386;54.314;10.022;2024-03-08T01:11:54;103785.22;;;1.71;100.00
20455;BME280;10386;54.314;10.022;2024-03-08T01:14:25;103774.53;;;1.74;100.00
20455;BME280;10386;54.314;10.022;2024-03-08T01:16:56;103775.34;;;1.69;100.00
20455;BME280;10386;54.314;10.022;2024-03-08T01:19:23;103771.06;;;1.84;100.00
20455;BME280;10386;54.314;10.022;2024-03-08T01:21:51;103768.16;;;1.66;100.00
20455;BME280;10386;54.314;10.022;2024-03-08T01:24:17;103779.59;;;1.52;100.00
20455;BME280;10386;54.314;10.022;2024-03-08T01:26:44;103770.69;;;1.53;100.00
20455;BME280;10386;54.314;10.022;2024-03-08T01:29:11;103767.91;;;1.44;100.00
20455;BME280;10386;54.314;10.022;2024-03-08T01:31:38;103758.13;;;1.46;100.00
20455;BME280;10386;54.314;10.022;2024-03-08T01:34:05;103753.69;;;1.49;100.00
20455;BME280;10386;54.314;10.022;2024-03-08T01:36:31;103752.00;;;1.57;100.00
20455;BME280;10386;54.314;10.022;2024-03-08T01:38:58;103751.78;;;1.38;100.00
20455;BME280;10386;54.314;10.022;2024-03-08T01:41:25;103740.25;;;1.46;100.00
20455;BME280;10386;54.314;10.022;2024-03-08T01:43:56;103733.16;;;1.48;100.00
20455;BME280;10386;54.314;10.022;2024-03-08T01:46:23;103750.84;;;1.37;100.00
20455;BME280;10386;54.314;10.022;2024-03-08T01:48:50;103736.66;;;1.44;100.00
20455;BME280;10386;54.314;10.022;2024-03-08T01:51:18;103732.22;;;1.46;100.00
20455;BME280;10386;54.314;10.022;2024-03-08T01:53:46;103735.59;;;1.31;100.00
20455;BME280;10386;54.314;10.022;2024-03-08T01:56:14;103728.38;;;1.25;100.00
20455;BME280;10386;54.314;10.022;2024-03-08T01:58:41;103722.25;;;1.33;100.00
20455;BME280;10386;54.314;10.022;2024-03-08T02:01:13;103729.28;;;1.26;100.00
20455;BME280;10386;54.314;10.022;2024-03-08T02:03:44;103722.44;;;1.47;100.00
20455;BME280;10386;54.314;10.022;2024-03-08T02:06:12;103716.91;;;1.33;100.00
20455;BME280;10386;54.314;10.022;2024-03-08T02:08:45;103716.91;;;1.32;100.00
20455;BME280;10386;54.314;10.022;2024-03-08T02:11:13;103710.75;;;1.40;100.00
20455;BME280;10386;54.314;10.022;2024-03-08T02:13:41;103713.31;;;1.30;100.00
20455;BME280;10386;54.314;10.022;2024-03-08T02:16:08;103699.81;;;1.24;100.00
20455;BME280;10386;54.314;10.022;2024-03-08T02:18:36;103699.19;;;1.44;100.00
20455;BME280;10386;54.314;10.022;2024-03-08T02:21:05;103704.47;;;1.38;100.00
20455;BME280;10386;54.314;10.022;2024-03-08T02:23:33;103696.66;;;1.55;100.00
20455;BME280;10386;54.314;10.022;2024-03-08T02:26:00;103687.72;;;1.54;100.00
20455;BME280;10386;54.314;10.022;2024-03-08T02:28:27;103680.59;;;1.55;100.00
20455;BME280;10386;54.314;10.022;2024-03-08T02:30:56;103678.66;;;1.42;100.00
20455;BME280;10386;54.314;10.022;2024-03-08T02:33:26;103675.09;;;1.43;100.00
20455;BME280;10386;54.314;10.022;2024-03-08T02:35:53;103666.13;;;1.39;100.00
20455;BME280;10386;54.314;10.022;2024-03-08T02:38:21;103663.53;;;1.44;100.00
20455;BME280;10386;54.314;10.022;2024-03-08T02:40:50;103658.19;;;1.47;100.00
20455;BME280;10386;54.314;10.022;2024-03-08T02:43:19;103659.19;;;1.58;100.00
20455;BME280;10386;54.314;10.022;2024-03-08T02:45:47;103651.19;;;1.61;100.00
20455;BME280;10386;54.314;10.022;2024-03-08T02:48:15;103651.06;;;1.50;100.00
20455;BME280;10386;54.314;10.022;2024-03-08T02:50:43;103647.44;;;1.42;100.00
20455;BME280;10386;54.314;10.022;2024-03-08T02:53:13;103640.44;;;1.56;100.00
20455;BME280;10386;54.314;10.022;2024-03-08T02:55:41;103636.81;;;1.50;100.00
20455;BME280;10386;54.314;10.022;2024-03-08T02:58:08;103635.88;;;1.46;100.00
20455;BME280;10386;54.314;10.022;2024-03-08T03:00:37;103631.44;;;1.48;100.00
20455;BME280;10386;54.314;10.022;2024-03-08T03:03:07;103629.66;;;1.50;100.00
20455;BME280;10386;54.314;10.022;2024-03-08T03:05:34;103723.38;;;1.52;100.00
20455;BME280;10386;54.314;10.022;2024-03-08T03:08:03;103723.38;;;1.52;100.00
20455;BME280;10386;54.314;10.022;2024-03-08T03:10:36;103722.50;;;1.54;100.00
20455;BME280;10386;54.314;10.022;2024-03-08T03:13:03;103709.88;;;1.41;100.00
20455;BME280;10386;54.314;10.022;2024-03-08T03:15:33;103709.03;;;1.45;100.00
20455;BME280;10386;54.314;10.022;2024-03-08T03:18:01;103681.34;;;1.42;100.00
20455;BME280;10386;54.314;10.022;2024-03-08T03:20:28;103678.91;;;1.66;100.00
20455;BME280;10386;54.314;10.022;2024-03-08T03:23:00;103676.09;;;1.52;100.00
20455;BME280;10386;54.314;10.022;2024-03-08T03:25:30;103669.91;;;1.59;100.00
20455;BME280;10386;54.314;10.022;2024-03-08T03:28:02;103665.44;;;1.57;100.00
20455;BME280;10386;54.314;10.022;2024-03-08T03:30:29;103669.06;;;1.62;100.00
20455;BME280;10386;54.314;10.022;2024-03-08T03:33:00;103669.91;;;1.58;100.00
20455;BME280;10386;54.314;10.022;2024-03-08T03:35:30;103671.69;;;1.56;100.00
20455;BME280;10386;54.314;10.022;2024-03-08T03:37:57;103660.25;;;1.75;100.00
20455;BME280;10386;54.314;10.022;2024-03-08T03:40:39;103654.91;;;1.73;100.00
20455;BME280;10386;54.314;10.022;2024-03-08T03:43:07;103650.50;;;1.80;100.00
20455;BME280;10386;54.314;10.022;2024-03-08T03:45:34;103639.78;;;1.78;100.00
20455;BME280;10386;54.314;10.022;2024-03-08T03:48:04;103637.09;;;1.80;100.00
20455;BME280;10386;54.314;10.022;2024-03-08T03:50:33;103634.47;;;1.86;100.00
20455;BME280;10386;54.314;10.022;2024-03-08T03:53:04;103638.91;;;1.79;100.00
20455;BME280;10386;54.314;10.022;2024-03-08T03:55:35;103629.94;;;1.74;100.00
20455;BME280;10386;54.314;10.022;2024-03-08T03:58:06;103623.69;;;1.75;100.00
20455;BME280;10386;54.314;10.022;2024-03-08T04:00:33;103625.53;;;1.84;100.00
20455;BME280;10386;54.314;10.022;2024-03-08T04:03:00;103621.13;;;1.87;100.00
20455;BME280;10386;54.314;10.022;2024-03-08T04:05:27;103627.44;;;1.95;100.00
20455;BME280;10386;54.314;10.022;2024-03-08T04:07:54;103615.75;;;1.87;100.00
20455;BME280;10386;54.314;10.022;2024-03-08T04:10:21;103616.59;;;1.85;100.00
20455;BME280;10386;54.314;10.022;2024-03-08T04:12:48;103606.84;;;1.93;100.00
20455;BME280;10386;54.314;10.022;2024-03-08T04:15:15;103607.78;;;1.93;100.00
20455;BME280;10386;54.314;10.022;2024-03-08T04:17:42;103597.88;;;1.86;100.00
20455;BME280;10386;54.314;10.022;2024-03-08T04:20:09;103607.75;;;1.92;100.00
20455;BME280;10386;54.314;10.022;2024-03-08T04:22:37;103600.59;;;1.89;100.00
20455;BME280;10386;54.314;10.022;2024-03-08T04:25:06;103596.97;;;1.84;100.00
20455;BME280;10386;54.314;10.022;2024-03-08T04:27:33;103593.47;;;1.91;100.00
20455;BME280;10386;54.314;10.022;2024-03-08T04:30:04;103600.63;;;1.92;100.00
20455;BME280;10386;54.314;10.022;2024-03-08T04:32:34;103599.72;;;1.90;100.00
20455;BME280;10386;54.314;10.022;2024-03-08T04:35:01;103589.94;;;1.95;100.00
20455;BME280;10386;54.314;10.022;2024-03-08T04:37:31;103591.66;;;1.92;100.00
20455;BME280;10386;54.314;10.022;2024-03-08T04:39:58;103582.81;;;2.00;100.00
20455;BME280;10386;54.314;10.022;2024-03-08T04:42:27;103584.50;;;1.91;100.00
20455;BME280;10386;54.314;10.022;2024-03-08T04:44:55;103576.59;;;2.04;100.00
20455;BME280;10386;54.314;10.022;2024-03-08T04:47:22;103580.22;;;2.12;100.00
20455;BME280;10386;54.314;10.022;2024-03-08T04:49:49;103562.38;;;2.14;100.00
20455;BME280;10386;54.314;10.022;2024-03-08T04:52:17;103570.38;;;2.08;100.00
20455;BME280;10386;54.314;10.022;2024-03-08T04:54:43;103565.78;;;1.94;100.00
20455;BME280;10386;54.314;10.022;2024-03-08T04:57:13;103554.34;;;2.14;100.00
20455;BME280;10386;54.314;10.022;2024-03-08T04:59:40;103548.16;;;2.23;100.00
20455;BME280;10386;54.314;10.022;2024-03-08T05:02:07;103547.13;;;2.06;100.00
20455;BME280;10386;54.314;10.022;2024-03-08T05:04:34;103547.09;;;2.03;100.00
20455;BME280;10386;54.314;10.022;2024-03-08T05:07:02;103552.50;;;2.07;100.00
20455;BME280;10386;54.314;10.022;2024-03-08T05:09:31;103552.41;;;1.97;100.00
20455;BME280;10386;54.314;10.022;2024-03-08T05:11:59;103551.63;;;2.08;100.00
20455;BME280;10386;54.314;10.022;2024-03-08T05:14:26;103548.97;;;2.11;100.00
20455;BME280;10386;54.314;10.022;2024-03-08T05:16:53;103539.97;;;2.05;100.00
20455;BME280;10386;54.314;10.022;2024-03-08T05:19:20;103538.25;;;2.13;100.00
20455;BME280;10386;54.314;10.022;2024-03-08T05:21:48;103542.69;;;2.06;100.00
20455;BME280;10386;54.314;10.022;2024-03-08T05:24:16;103538.16;;;2.01;100.00
20455;BME280;10386;54.314;10.022;2024-03-08T05:26:44;103536.44;;;2.07;100.00
20455;BME280;10386;54.314;10.022;2024-03-08T05:29:12;103538.16;;;2.01;100.00
20455;BME280;10386;54.314;10.022;2024-03-08T05:31:50;103530.19;;;2.08;100.00
20455;BME280;10386;54.314;10.022;2024-03-08T05:34:21;103527.41;;;1.98;100.00
20455;BME280;10386;54.314;10.022;2024-03-08T05:36:49;103532.03;;;2.17;100.00
20455;BME280;10386;54.314;10.022;2024-03-08T05:39:21;103518.63;;;2.14;100.00
20455;BME280;10386;54.314;10.022;2024-03-08T05:41:48;103511.50;;;2.19;100.00
20455;BME280;10386;54.314;10.022;2024-03-08T05:44:15;103515.06;;;2.22;100.00
20455;BME280;10386;54.314;10.022;2024-03-08T05:46:45;103517.75;;;2.18;100.00
20455;BME280;10386;54.314;10.022;2024-03-08T05:49:13;103517.78;;;2.25;100.00
20455;BME280;10386;54.314;10.022;2024-03-08T05:51:40;103513.34;;;2.29;100.00
20455;BME280;10386;54.314;10.022;2024-03-08T05:54:11;103507.97;;;2.27;100.00
20455;BME280;10386;54.314;10.022;2024-03-08T05:56:42;103508.84;;;2.26;100.00
20455;BME280;10386;54.314;10.022;2024-03-08T05:59:11;103503.53;;;2.35;100.00
20455;BME280;10386;54.314;10.022;2024-03-08T06:01:38;103502.59;;;2.27;100.00
20455;BME280;10386;54.314;10.022;2024-03-08T06:04:08;103498.16;;;2.35;100.00
20455;BME280;10386;54.314;10.022;2024-03-08T06:06:34;103495.50;;;2.37;100.00
20455;BME280;10386;54.314;10.022;2024-03-08T06:09:04;103494.63;;;2.42;100.00
20455;BME280;10386;54.314;10.022;2024-03-08T06:11:40;103492.88;;;2.49;100.00
20455;BME280;10386;54.314;10.022;2024-03-08T06:14:09;103504.41;;;2.31;100.00
20455;BME280;10386;54.314;10.022;2024-03-08T06:16:36;103491.13;;;2.58;100.00
20455;BME280;10386;54.314;10.022;2024-03-08T06:19:03;103491.97;;;2.54;100.00
20455;BME280;10386;54.314;10.022;2024-03-08T06:21:31;103492.94;;;2.59;100.00
20455;BME280;10386;54.314;10.022;2024-03-08T06:23:59;103489.28;;;2.44;100.00
20455;BME280;10386;54.314;10.022;2024-03-08T06:26:26;103495.53;;;2.43;100.00
20455;BME280;10386;54.314;10.022;2024-03-08T06:28:57;103498.19;;;2.44;100.00
20455;BME280;10386;54.314;10.022;2024-03-08T06:31:24;103494.66;;;2.54;100.00
20455;BME280;10386;54.314;10.022;2024-03-08T06:33:51;103487.47;;;2.44;100.00
20455;BME280;10386;54.314;10.022;2024-03-08T06:36:22;103485.72;;;2.49;100.00
20455;BME280;10386;54.314;10.022;2024-03-08T06:38:49;103483.03;;;2.48;100.00
20455;BME280;10386;54.314;10.022;2024-03-08T06:41:17;103487.59;;;2.71;100.00
20455;BME280;10386;54.314;10.022;2024-03-08T06:43:45;103484.00;;;2.66;100.00
20455;BME280;10386;54.314;10.022;2024-03-08T06:46:17;103478.59;;;2.56;100.00
20455;BME280;10386;54.314;10.022;2024-03-08T06:48:44;103480.44;;;2.77;100.00
20455;BME280;10386;54.314;10.022;2024-03-08T06:51:13;103494.75;;;2.66;100.00
20455;BME280;10386;54.314;10.022;2024-03-08T06:53:41;103487.59;;;2.71;100.00
20455;BME280;10386;54.314;10.022;2024-03-08T06:56:08;103483.13;;;2.73;100.00
20455;BME280;10386;54.314;10.022;2024-03-08T06:58:35;103484.03;;;2.72;100.00
20455;BME280;10386;54.314;10.022;2024-03-08T07:01:02;103484.09;;;2.96;100.00
20455;BME280;10386;54.314;10.022;2024-03-08T07:03:31;103478.69;;;2.91;100.00
20455;BME280;10386;54.314;10.022;2024-03-08T07:05:59;103489.41;;;2.85;100.00
20455;BME280;10386;54.314;10.022;2024-03-08T07:08:28;103486.75;;;2.90;100.00
20455;BME280;10386;54.314;10.022;2024-03-08T07:10:55;103484.97;;;2.95;100.00
20455;BME280;10386;54.314;10.022;2024-03-08T07:13:22;103485.88;;;2.94;100.00
20455;BME280;10386;54.314;10.022;2024-03-08T07:15:49;103488.59;;;3.01;100.00
20455;BME280;10386;54.314;10.022;2024-03-08T07:18:15;103489.44;;;2.99;100.00
20455;BME280;10386;54.314;10.022;2024-03-08T07:20:42;103493.91;;;2.95;100.00
20455;BME280;10386;54.314;10.022;2024-03-08T07:23:10;103498.41;;;3.02;100.00
20455;BME280;10386;54.314;10.022;2024-03-08T07:25:37;103486.75;;;2.97;100.00
20455;BME280;10386;54.314;10.022;2024-03-08T07:28:06;103493.94;;;3.09;100.00
20455;BME280;10386;54.314;10.022;2024-03-08T07:30:37;103496.63;;;3.03;100.00
20455;BME280;10386;54.314;10.022;2024-03-08T07:33:11;103491.25;;;3.06;100.00
20455;BME280;10386;54.314;10.022;2024-03-08T07:35:41;103487.66;;;2.96;100.00
20455;BME280;10386;54.314;10.022;2024-03-08T07:38:12;103489.47;;;3.11;100.00
20455;BME280;10386;54.314;10.022;2024-03-08T07:40:40;103483.22;;;3.19;100.00
20455;BME280;10386;54.314;10.022;2024-03-08T07:43:08;103486.81;;;3.45;100.00
20455;BME280;10386;54.314;10.022;2024-03-08T07:45:35;103475.16;;;3.61;100.00
20455;BME280;10386;54.314;10.022;2024-03-08T07:48:04;103479.63;;;3.82;100.00
20455;BME280;10386;54.314;10.022;2024-03-08T07:50:37;103484.97;;;4.07;100.00
20455;BME280;10386;54.314;10.022;2024-03-08T07:53:09;103487.66;;;4.01;100.00
20455;BME280;10386;54.314;10.022;2024-03-08T07:55:36;103489.47;;;3.93;100.00
20455;BME280;10386;54.314;10.022;2024-03-08T07:58:04;103492.06;;;4.26;100.00
20455;BME280;10386;54.314;10.022;2024-03-08T08:00:31;103506.47;;;4.07;100.00
20455;BME280;10386;54.314;10.022;2024-03-08T08:03:03;103507.38;;;3.96;100.00
20455;BME280;10386;54.314;10.022;2024-03-08T08:05:31;103511.78;;;4.20;100.00
20455;BME280;10386;54.314;10.022;2024-03-08T08:08:02;103514.47;;;4.32;100.00
20455;BME280;10386;54.314;10.022;2024-03-08T08:10:33;103523.28;;;4.67;100.00
20455;BME280;10386;54.314;10.022;2024-03-08T08:13:00;103527.78;;;4.64;100.00
20455;BME280;10386;54.314;10.022;2024-03-08T08:15:28;103533.94;;;4.88;100.00
20455;BME280;10386;54.314;10.022;2024-03-08T08:17:55;103546.41;;;5.04;100.00
20455;BME280;10386;54.314;10.022;2024-03-08T08:20:22;103559.03;;;4.93;100.00
20455;BME280;10386;54.314;10.022;2024-03-08T08:22:49;103569.03;;;4.72;100.00
20455;BME280;10386;54.314;10.022;2024-03-08T08:25:16;103570.88;;;4.49;100.00
20455;BME280;10386;54.314;10.022;2024-03-08T08:27:47;103587.06;;;4.34;100.00
20455;BME280;10386;54.314;10.022;2024-03-08T08:30:14;103587.00;;;4.59;100.00
20455;BME280;10386;54.314;10.022;2024-03-08T08:32:41;103596.75;;;4.92;100.00
20455;BME280;10386;54.314;10.022;2024-03-08T08:35:10;103601.25;;;4.88;100.00
20455;BME280;10386;54.314;10.022;2024-03-08T08:37:39;103608.47;;;4.67;100.00
20455;BME280;10386;54.314;10.022;2024-03-08T08:40:07;103620.19;;;4.58;100.00
20455;BME280;10386;54.314;10.022;2024-03-08T08:42:41;103623.81;;;4.42;100.00
20455;BME280;10386;54.314;10.022;2024-03-08T08:45:09;103622.88;;;4.54;100.00
20455;BME280;10386;54.314;10.022;2024-03-08T08:47:46;103621.00;;;4.89;100.00
20455;BME280;10386;54.314;10.022;2024-03-08T08:50:14;103628.97;;;5.17;100.00
20455;BME280;10386;54.314;10.022;2024-03-08T08:52:40;103637.97;;;5.03;100.00
20455;BME280;10386;54.314;10.022;2024-03-08T08:55:10;103628.94;;;5.19;100.00
20455;BME280;10386;54.314;10.022;2024-03-08T08:57:41;103645.03;;;5.32;100.00
20455;BME280;10386;54.314;10.022;2024-03-08T09:00:09;103626.94;;;5.56;100.00
20455;BME280;10386;54.314;10.022;2024-03-08T09:02:41;103638.56;;;5.64;100.00
20455;BME280;10386;54.314;10.022;2024-03-08T09:05:08;103571.97;;;5.81;100.00
20455;BME280;10386;54.314;10.022;2024-03-08T09:07:35;103584.53;;;5.85;100.00
20455;BME280;10386;54.314;10.022;2024-03-08T09:10:03;103597.09;;;5.85;100.00
20455;BME280;10386;54.314;10.022;2024-03-08T09:12:43;103600.63;;;5.93;100.00
20455;BME280;10386;54.314;10.022;2024-03-08T09:15:10;103612.25;;;6.02;100.00
20455;BME280;10386;54.314;10.022;2024-03-08T09:17:40;103618.59;;;5.97;100.00
20455;BME280;10386;54.314;10.022;2024-03-08T09:20:09;103629.28;;;6.07;100.00
20455;BME280;10386;54.314;10.022;2024-03-08T09:22:37;103637.41;;;6.03;100.00
20455;BME280;10386;54.314;10.022;2024-03-08T09:25:04;103644.41;;;6.25;100.00
20455;BME280;10386;54.314;10.022;2024-03-08T09:27:32;103651.63;;;6.21;100.00
20455;BME280;10386;54.314;10.022;2024-03-08T09:30:00;103653.38;;;6.27;100.00
20455;BME280;10386;54.314;10.022;2024-03-08T09:32:27;103663.22;;;6.32;100.00
20455;BME280;10386;54.314;10.022;2024-03-08T09:34:54;103665.75;;;6.53;100.00
20455;BME280;10386;54.314;10.022;2024-03-08T09:37:22;103676.63;;;6.43;100.00
20455;BME280;10386;54.314;10.022;2024-03-08T09:39:49;103686.22;;;6.74;100.00
20455;BME280;10386;54.314;10.022;2024-03-08T09:42:16;103690.13;;;6.44;100.00
20455;BME280;10386;54.314;10.022;2024-03-08T09:44:46;103689.09;;;6.56;100.00
20455;BME280;10386;54.314;10.022;2024-03-08T09:47:14;103689.75;;;6.82;100.00
20455;BME280;10386;54.314;10.022;2024-03-08T09:49:41;103689.66;;;6.90;100.00
20455;BME280;10386;54.314;10.022;2024-03-08T09:52:10;103687.16;;;6.70;100.00
20455;BME280;10386;54.314;10.022;2024-03-08T09:54:39;103684.25;;;6.89;100.00
20455;BME280;10386;54.314;10.022;2024-03-08T09:57:11;103676.22;;;6.84;100.00
20455;BME280;10386;54.314;10.022;2024-03-08T09:59:38;103681.41;;;7.02;100.00
20455;BME280;10386;54.314;10.022;2024-03-08T10:02:04;103665.13;;;7.08;100.00
20455;BME280;10386;54.314;10.022;2024-03-08T10:04:32;103662.44;;;7.08;100.00
20455;BME280;10386;54.314;10.022;2024-03-08T10:07:00;103683.19;;;7.02;100.00
20455;BME280;10386;54.314;10.022;2024-03-08T10:09:28;103662.75;;;6.80;100.00
20455;BME280;10386;54.314;10.022;2024-03-08T10:11:58;103647.59;;;6.67;100.00
20455;BME280;10386;54.314;10.022;2024-03-08T10:14:25;103639.41;;;6.76;100.00
20455;BME280;10386;54.314;10.022;2024-03-08T10:16:55;103637.41;;;6.94;100.00
20455;BME280;10386;54.314;10.022;2024-03-08T10:19:27;103622.34;;;6.71;100.00
20455;BME280;10386;54.314;10.022;2024-03-08T10:21:56;103612.59;;;6.58;100.00
20455;BME280;10386;54.314;10.022;2024-03-08T10:24:26;103614.94;;;6.89;100.00
20455;BME280;10386;54.314;10.022;2024-03-08T10:26:53;103596.84;;;6.96;100.00
20455;BME280;10386;54.314;10.022;2024-03-08T10:29:21;103590.88;;;6.70;100.00
20455;BME280;10386;54.314;10.022;2024-03-08T10:31:47;103577.03;;;6.97;100.00
20455;BME280;10386;54.314;10.022;2024-03-08T10:34:14;103569.53;;;7.18;100.00
20455;BME280;10386;54.314;10.022;2024-03-08T10:36:41;103555.75;;;7.38;100.00
20455;BME280;10386;54.314;10.022;2024-03-08T10:39:24;103547.50;;;7.45;100.00
20455;BME280;10386;54.314;10.022;2024-03-08T10:41:55;103519.09;;;7.19;100.00
20455;BME280;10386;54.314;10.022;2024-03-08T10:47:06;103480.91;;;7.41;100.00
20455;BME280;10386;54.314;10.022;2024-03-08T10:49:40;103462.91;;;7.40;100.00
20455;BME280;10386;54.314;10.022;2024-03-08T10:52:09;103444.63;;;7.54;100.00
20455;BME280;10386;54.314;10.022;2024-03-08T10:54:39;103421.84;;;7.69;100.00
20455;BME280;10386;54.314;10.022;2024-03-08T10:57:12;103371.19;;;7.31;100.00
20455;BME280;10386;54.314;10.022;2024-03-08T10:59:40;103343.22;;;7.34;100.00
20455;BME280;10386;54.314;10.022;2024-03-08T11:02:11;103310.88;;;7.29;100.00
20455;BME280;10386;54.314;10.022;2024-03-08T11:04:38;103290.81;;;7.42;100.00
20455;BME280;10386;54.314;10.022;2024-03-08T11:07:05;103251.59;;;7.20;100.00
20455;BME280;10386;54.314;10.022;2024-03-08T11:09:37;103229.75;;;7.32;100.00
20455;BME280;10386;54.314;10.022;2024-03-08T11:12:22;103214.22;;;7.43;100.00
20455;BME280;10386;54.314;10.022;2024-03-08T11:14:53;103176.09;;;7.55;100.00
20455;BME280;10386;54.314;10.022;2024-03-08T11:17:25;103159.56;;;7.70;100.00
20455;BME280;10386;54.314;10.022;2024-03-08T11:19:58;103127.78;;;7.80;100.00
20455;BME280;10386;54.314;10.022;2024-03-08T11:22:29;103089.13;;;7.76;100.00
20455;BME280;10386;54.314;10.022;2024-03-08T11:25:02;103058.09;;;7.92;100.00
20455;BME280;10386;54.314;10.022;2024-03-08T11:27:30;103037.13;;;8.00;100.00
20455;BME280;10386;54.314;10.022;2024-03-08T11:30:05;103020.16;;;7.59;100.00
20455;BME280;10386;54.314;10.022;2024-03-08T11:32:47;103014.22;;;7.80;100.00
20455;BME280;10386;54.314;10.022;2024-03-08T11:35:19;103008.06;;;8.08;100.00
20455;BME280;10386;54.314;10.022;2024-03-08T11:37:46;102992.25;;;7.92;100.00
20455;BME280;10386;54.314;10.022;2024-03-08T11:40:15;102969.50;;;7.67;100.00
20455;BME280;10386;54.314;10.022;2024-03-08T11:42:46;102956.06;;;7.64;100.00
20455;BME280;10386;54.314;10.022;2024-03-08T11:45:18;102960.56;;;7.97;100.00
20455;BME280;10386;54.314;10.022;2024-03-08T11:48:06;102940.66;;;7.67;100.00
20455;BME280;10386;54.314;10.022;2024-03-08T11:50:33;102915.78;;;7.53;100.00
20455;BME280;10386;54.314;10.022;2024-03-08T11:53:01;102890.84;;;7.42;100.00
20455;BME280;10386;54.314;10.022;2024-03-08T11:55:31;102870.00;;;7.47;100.00
20455;BME280;10386;54.314;10.022;2024-03-08T11:58:03;102871.06;;;7.74;100.00
20455;BME280;10386;54.314;10.022;2024-03-08T12:00:31;102859.81;;;7.90;100.00
20455;BME280;10386;54.314;10.022;2024-03-08T12:03:06;102863.63;;;7.82;100.00
20455;BME280;10386;54.314;10.022;2024-03-08T12:05:33;102851.03;;;7.82;100.00
20455;BME280;10386;54.314;10.022;2024-03-08T12:08:02;102850.88;;;7.87;100.00
20455;BME280;10386;54.314;10.022;2024-03-08T12:10:29;102842.41;;;7.68;100.00
20455;BME280;10386;54.314;10.022;2024-03-08T12:12:58;102823.75;;;7.90;100.00
20455;BME280;10386;54.314;10.022;2024-03-08T12:15:30;102818.16;;;7.65;100.00
20455;BME280;10386;54.314;10.022;2024-03-08T12:17:59;102816.78;;;7.49;100.00
20455;BME280;10386;54.314;10.022;2024-03-08T12:20:28;102802.66;;;7.40;100.00
20455;BME280;10386;54.314;10.022;2024-03-08T12:22:59;102807.72;;;7.52;100.00
20455;BME280;10386;54.314;10.022;2024-03-08T12:25:31;102805.16;;;7.79;100.00
20455;BME280;10386;54.314;10.022;2024-03-08T12:28:12;102796.66;;;7.61;100.00
20455;BME280;10386;54.314;10.022;2024-03-08T12:30:48;102808.31;;;7.63;100.00
20455;BME280;10386;54.314;10.022;2024-03-08T12:33:16;102792.38;;;7.52;100.00
20455;BME280;10386;54.314;10.022;2024-03-08T12:35:51;102787.06;;;7.49;100.00
20455;BME280;10386;54.314;10.022;2024-03-08T12:38:21;102777.94;;;7.53;100.00
20455;BME280;10386;54.314;10.022;2024-03-08T12:40:59;102770.00;;;7.79;100.00
20455;BME280;10386;54.314;10.022;2024-03-08T12:43:26;102760.03;;;7.80;100.00
20455;BME280;10386;54.314;10.022;2024-03-08T12:45:57;102747.63;;;8.03;100.00
20455;BME280;10386;54.314;10.022;2024-03-08T12:48:23;102738.69;;;8.00;100.00
20455;BME280;10386;54.314;10.022;2024-03-08T12:50:51;102724.31;;;7.99;100.00